Participated 5 times
Between 1973 and 1979
André Mollet, France
Tour de France 2026 starts from Edinburgh, Scotland in

Stats and Facts from
Tour de France.

2026   2025   2024   2023  2022  2021  2020  2019   2018  2017   2016   2015  2014  2013   2012   2011  2010   2009   2008   2007   2006   2005   2004   2003   2002   2001   2000   1999   1998   1997  1996   1995   1994   1993   1992  1991   1990   1989   1988   1987   1986   1985   1984   1983  1982  1981   1980   1979  1978  1977   1976  1975  1974  1973   1972   1971   1970  1969   1968   1967   1966   1965  1964  1963   1962   1961   1960   1959   1958   1957  1956   1955   1954   1953   1952  1951  1950  1949   1948  1947  1939   1938   1937   1936   1935   1934   1933  1932   1931   1930  1929   1928   1927   1926  1925  1924  1923   1922   1921   1920   1919  1914   1913   1912   1911   1910  1909   1908   1907   1906  1905  1904   1903 

Tourstats
Sitemap

After stage 21 - 2026:
 16451 starters.
  5513 different riders.
  689 teams.
  2419 stages.
  470 restdays.
  469752.50 km.
  5946 abandoned riders.

Click map for 1990 route.
Facts from Tour de France 1990
  |   Stages.  |   Stage winners.  |   Days in jerseys.  |   Teams.  |   All riders.  |   All riders by age.  |   All riders from.  |  

  |   Rookies.  |   Withdrawls.  |   Average speed.  |   GC.  |   Polka  |   Green  |   White  |   Summits. (In tour)  |   Miscellaneous.  |  

Stage 19 on July 20th. 1990
Pick a stage:  Pro  1  2  3  4  5  6  7  8  9  10  11  12  13  14  15  16  17  18  19  20  21  

After stage 19:    Claudio Chiappucci  
  Castillon-la-BatailleLimoges | Dist: 182.50km. | Winner: Guido Bontempi

Podium
4  Côte de Champs Romain Tony Romingerafter120.00 km.

4  Côte de Aixe-sur-Vienne Guido Bontempiafter174.50 km.


Average speed for all riders in stage:  34,014 km./hr.

1
 Guido Bontempi  Carrera Jeans-Vagabond05h 16' 04"=34,645  km/h

2
 Dag Otto Lauritzen  7 Eleven-Hoonved05h 17' 32"+  00:01:28 =34,485  km/h

3
 Peter Roes  Lotto-Super Club05h 17' 32"+  00:01:28 =34,485  km/h

4  Roberto Gusmeroli  Chateau d'Ax05h 17' 36"+  00:01:32 =34,477  km/h

5  Jelle Nijdam  Buckler05h 18' 10"+  00:02:06 =34,416  km/h

6  Adrie Van Der Poel  Weinmann-La Suisse-S.M.M. Uster05h 18' 10"+  00:02:06 =34,416  km/h

7  Steve Bauer  7 Eleven-Hoonved05h 18' 10"+  00:02:06 =34,416  km/h

8  Andreas Kappes  Toshiba05h 18' 10"+  00:02:06 =34,416  km/h

9  Maarten Ducrot  TVM05h 18' 19"+  00:02:15 =34,400  km/h

10  Edwig Van Hooydonck  Buckler05h 18' 48"+  00:02:44 =34,348  km/h

11  Tony Rominger  Chateau d'Ax05h 18' 49"+  00:02:45 =34,346  km/h

12  Viatcheslav Ekimov  Panasonic-Sportlife05h 18' 57"+  00:02:53 =34,331  km/h

13  Brian Holm  Histor-Sigma05h 18' 57"+  00:02:53 =34,331  km/h

14  Michel Dernies  Weinmann-La Suisse-S.M.M. Uster05h 18' 57"+  00:02:53 =34,331  km/h

15  Ronan Pensec  Z05h 18' 57"+  00:02:53 =34,331  km/h

16  Pello Ruiz Cabestany  O.N.C.E.05h 18' 57"+  00:02:53 =34,331  km/h

17  Thierry Laurent  R.M.O.-Mavic-Liberia05h 18' 57"+  00:02:53 =34,331  km/h

18  Pablo Hernández  Ryalcao-Postobon05h 18' 57"+  00:02:53 =34,331  km/h

19  Toine  Poels  Buckler05h 18' 57"+  00:02:53 =34,331  km/h

20  Jos Van Aert  PDM-Concorde05h 18' 57"+  00:02:53 =34,331  km/h

21  Anselmo Fuerte  O.N.C.E.05h 20' 03"+  00:03:59 =34,213  km/h

22  Jesús Rosado  Kelme-Ibexpress05h 20' 06"+  00:04:02 =34,208  km/h

23  Michel Vermote  R.M.O.-Mavic-Liberia05h 20' 54"+  00:04:50 =34,123  km/h

24  Peter De Clercq  Lotto-Super Club05h 20' 55"+  00:04:51 =34,121  km/h

25  Dimitri Konychev  Alfa Lum05h 22' 08"+  00:06:04 =33,992  km/h

26  Claudio Chiappucci  Carrera Jeans-Vagabond05h 22' 08"+  00:06:04 =33,992  km/h

27  Greg LeMond  Z05h 22' 08"+  00:06:04 =33,992  km/h

28  Jean-Claude Colotti  R.M.O.-Mavic-Liberia05h 22' 08"+  00:06:04 =33,992  km/h

29  Sean Kelly  PDM-Concorde05h 22' 08"+  00:06:04 =33,992  km/h

30  José Rodriguez  Seur05h 22' 08"+  00:06:04 =33,992  km/h

31  William Pulido  Ryalcao-Postobon05h 22' 08"+  00:06:04 =33,992  km/h

32  Fabrice Philipot  Castorama-Raleigh05h 22' 08"+  00:06:04 =33,992  km/h

33  Gianni Bugno  Chateau d'Ax05h 22' 08"+  00:06:04 =33,992  km/h

34  Claude Criquielion  Lotto-Super Club05h 22' 08"+  00:06:04 =33,992  km/h

35  Erik Breukink  PDM-Concorde05h 22' 08"+  00:06:04 =33,992  km/h

36  Eduardo Chozas  O.N.C.E.05h 22' 08"+  00:06:04 =33,992  km/h

37  Pascal Lino  R.M.O.-Mavic-Liberia05h 22' 08"+  00:06:04 =33,992  km/h

38  Piotr Ugrumov  Alfa Lum05h 22' 08"+  00:06:04 =33,992  km/h

39  Patrick Robeet  Weinmann-La Suisse-S.M.M. Uster05h 22' 08"+  00:06:04 =33,992  km/h

40  Pedro Delgado  Banesto05h 22' 08"+  00:06:04 =33,992  km/h

41  Gilles Delion  Helvetia-La Suisse05h 22' 08"+  00:06:04 =33,992  km/h

42  Raúl Alcalá  PDM-Concorde05h 22' 08"+  00:06:04 =33,992  km/h

43  William Palacio  Ryalcao-Postobon05h 22' 08"+  00:06:04 =33,992  km/h

44  Marino Lejarreta  O.N.C.E.05h 22' 08"+  00:06:04 =33,992  km/h

45  Alessandro Giannelli  Carrera Jeans-Vagabond05h 22' 08"+  00:06:04 =33,992  km/h

46  Jerôme Simon  Z05h 22' 08"+  00:06:04 =33,992  km/h

47  Phil Anderson  TVM05h 22' 08"+  00:06:04 =33,992  km/h

48  Jörg Müller  TVM05h 22' 08"+  00:06:04 =33,992  km/h

49  Stephen Roche  Histor-Sigma05h 22' 08"+  00:06:04 =33,992  km/h

50  Vicente Ridaura  Seur05h 22' 08"+  00:06:04 =33,992  km/h

51  Uwe Raab  PDM-Concorde05h 22' 08"+  00:06:04 =33,992  km/h

52  Juan Martinez Oliver  Banesto05h 22' 08"+  00:06:04 =33,992  km/h

53  Óscar Vargas  Ryalcao-Postobon05h 22' 08"+  00:06:04 =33,992  km/h

54  Luc Leblanc  Castorama-Raleigh05h 22' 08"+  00:06:04 =33,992  km/h

55  Mauro Gianetti  Helvetia-La Suisse05h 22' 08"+  00:06:04 =33,992  km/h

56  Fabio Parra  Kelme-Ibexpress05h 22' 08"+  00:06:04 =33,992  km/h

57  Valerio Piva  Ariostea05h 22' 08"+  00:06:04 =33,992  km/h

58  Andy Hampsten  7 Eleven-Hoonved05h 22' 08"+  00:06:04 =33,992  km/h

59  Atle Kvå lsvoll  Z05h 22' 08"+  00:06:04 =33,992  km/h

60  Stephen Hodge  O.N.C.E.05h 22' 08"+  00:06:04 =33,992  km/h

61  Miguel Indurain  Banesto05h 22' 08"+  00:06:04 =33,992  km/h

62  Steven Rooks  Panasonic-Sportlife05h 22' 08"+  00:06:04 =33,992  km/h

63  Jos Haex  Lotto-Super Club05h 22' 08"+  00:06:04 =33,992  km/h

64  Herminio Diaz Zabala  O.N.C.E.05h 22' 08"+  00:06:04 =33,992  km/h

65  Johan Bruyneel  Lotto-Super Club05h 22' 08"+  00:06:04 =33,992  km/h

66  Paul Haghedooren  Histor-Sigma05h 22' 08"+  00:06:04 =33,992  km/h

67  Roberto Conti  Ariostea05h 22' 08"+  00:06:04 =33,992  km/h

68  Bruno Cenghialta  Ariostea05h 22' 08"+  00:06:04 =33,992  km/h

69  Rudy Dhaenens  PDM-Concorde05h 22' 08"+  00:06:04 =33,992  km/h

70  Maximilian Sciandri  Carrera Jeans-Vagabond05h 22' 08"+  00:06:04 =33,992  km/h

71  Bruno Cornillet  Z05h 22' 08"+  00:06:04 =33,992  km/h

72  Søren Lilholt  Histor-Sigma05h 22' 08"+  00:06:04 =33,992  km/h

73  Gerrit De Vries  Buckler05h 22' 08"+  00:06:04 =33,992  km/h

74  Frans Maassen  Buckler05h 22' 08"+  00:06:04 =33,992  km/h

75  Vincent Barteau  Castorama-Raleigh05h 22' 08"+  00:06:04 =33,992  km/h

76  Jan Schur  Chateau d'Ax05h 22' 08"+  00:06:04 =33,992  km/h

77  Massimo Ghirotto  Carrera Jeans-Vagabond05h 22' 08"+  00:06:04 =33,992  km/h

78  Gilbert Duclos-Lassalle  Z05h 22' 08"+  00:06:04 =33,992  km/h

79  Adriano Baffi  Ariostea05h 22' 08"+  00:06:04 =33,992  km/h

80  Álvaro Mejía  Ryalcao-Postobon05h 22' 08"+  00:06:04 =33,992  km/h

81  Jan Siemons  TVM05h 22' 08"+  00:06:04 =33,992  km/h

82  Jean-Claude Bagot  R.M.O.-Mavic-Liberia05h 22' 08"+  00:06:04 =33,992  km/h

83  Mario Kummer  Chateau d'Ax05h 22' 08"+  00:06:04 =33,992  km/h

84  Jan Goessens  Weinmann-La Suisse-S.M.M. Uster05h 22' 08"+  00:06:04 =33,992  km/h

85  Marc Sergeant  Panasonic-Sportlife05h 22' 08"+  00:06:04 =33,992  km/h

86  Thierry Claveyrolat  R.M.O.-Mavic-Liberia05h 22' 08"+  00:06:04 =33,992  km/h

87  Guy Nulens  Panasonic-Sportlife05h 22' 08"+  00:06:04 =33,992  km/h

88  Pascal Simon  Castorama-Raleigh05h 22' 08"+  00:06:04 =33,992  km/h

89  Alberto Volpi  Chateau d'Ax05h 22' 08"+  00:06:04 =33,992  km/h

90  Gerardo Moncada  Ryalcao-Postobon05h 22' 08"+  00:06:04 =33,992  km/h

91  Djamolidine Abduzhaparov  Alfa Lum05h 22' 08"+  00:06:04 =33,992  km/h

92  Nestor Mora  Kelme-Ibexpress05h 22' 08"+  00:06:04 =33,992  km/h

93  Abelardo Rondón  Banesto05h 22' 08"+  00:06:04 =33,992  km/h

94  Alberto Elli  Ariostea05h 22' 08"+  00:06:04 =33,992  km/h

95  Davide Cassani  Ariostea05h 22' 08"+  00:06:04 =33,992  km/h

96  Dominique Arnaud  Banesto05h 22' 08"+  00:06:04 =33,992  km/h

97  José Urea  Seur05h 22' 08"+  00:06:04 =33,992  km/h

98  Juan Castillo  Ryalcao-Postobon05h 22' 08"+  00:06:04 =33,992  km/h

99  Norman Alvis  7 Eleven-Hoonved05h 22' 08"+  00:06:04 =33,992  km/h

100  Laurent Pillon  Histor-Sigma05h 22' 08"+  00:06:04 =33,992  km/h

101  Roland Le Clerc  Toshiba05h 22' 08"+  00:06:04 =33,992  km/h

102  Kurt Steinmann  Weinmann-La Suisse-S.M.M. Uster05h 22' 08"+  00:06:04 =33,992  km/h

103  Giancarlo Perini  Carrera Jeans-Vagabond05h 22' 08"+  00:06:04 =33,992  km/h

104  Christian Chaubet  Toshiba05h 22' 08"+  00:06:04 =33,992  km/h

105  Frédéric Brun  R.M.O.-Mavic-Liberia05h 22' 08"+  00:06:04 =33,992  km/h

106  Pascal Lance  Toshiba05h 22' 08"+  00:06:04 =33,992  km/h

107  Beat Breu  Weinmann-La Suisse-S.M.M. Uster05h 22' 08"+  00:06:04 =33,992  km/h

108  Jesus Rodriguez Magro  Banesto05h 22' 08"+  00:06:04 =33,992  km/h

109  Melchor Mauri  O.N.C.E.05h 22' 08"+  00:06:04 =33,992  km/h

110  Ron Kiefel  7 Eleven-Hoonved05h 22' 08"+  00:06:04 =33,992  km/h

111  Sean Yates  7 Eleven-Hoonved05h 22' 08"+  00:06:04 =33,992  km/h

112  Pablo Moreno  Seur05h 22' 08"+  00:06:04 =33,992  km/h

113  Vasily Zhdanov  Alfa Lum05h 22' 08"+  00:06:04 =33,992  km/h

114  Denis Roux  Toshiba05h 22' 08"+  00:06:04 =33,992  km/h

115  Éric Boyer  Z05h 22' 08"+  00:06:04 =33,992  km/h

116  François Lemarchand  Z05h 22' 08"+  00:06:04 =33,992  km/h

117  Olaf Ludwig  Panasonic-Sportlife05h 22' 08"+  00:06:04 =33,992  km/h

118  Laurent Biondi  Histor-Sigma05h 22' 08"+  00:06:04 =33,992  km/h

119  Jean-Claude Leclercq  Helvetia-La Suisse05h 22' 08"+  00:06:04 =33,992  km/h

120  Acacio da Silva  Carrera Jeans-Vagabond05h 22' 08"+  00:06:04 =33,992  km/h

121  Miguel Angel Martinez  O.N.C.E.05h 22' 08"+  00:06:04 =33,992  km/h

122  Alexandre Trubine  Alfa Lum05h 22' 08"+  00:06:04 =33,992  km/h

123  Philippe Louviot  Toshiba05h 22' 08"+  00:06:04 =33,992  km/h

124  Nelson Rodríguez  Kelme-Ibexpress05h 22' 08"+  00:06:04 =33,992  km/h

125  José Ángel Sarrapio  Kelme-Ibexpress05h 22' 08"+  00:06:04 =33,992  km/h

126  Henri Manders  Helvetia-La Suisse05h 22' 08"+  00:06:04 =33,992  km/h

127  Reynel Montoya  Ryalcao-Postobon05h 22' 08"+  00:06:04 =33,992  km/h

128  Marcello Siboni  Ariostea05h 22' 08"+  00:06:04 =33,992  km/h

129  Nikolai Golovatenko  Alfa Lum05h 22' 08"+  00:06:04 =33,992  km/h

130  Andrew Bishop  7 Eleven-Hoonved05h 22' 08"+  00:06:04 =33,992  km/h

131  Martin Schalkers  TVM05h 22' 08"+  00:06:04 =33,992  km/h

132  Giovanni Fidanza  Chateau d'Ax05h 22' 08"+  00:06:04 =33,992  km/h

133  Carlos Jaramillo  Ryalcao-Postobon05h 22' 08"+  00:06:04 =33,992  km/h

134  Erich Mächler  Carrera Jeans-Vagabond05h 22' 08"+  00:06:04 =33,992  km/h

135  Johan Museeuw  Lotto-Super Club05h 22' 08"+  00:06:04 =33,992  km/h

136  Willem Van Eynde  Lotto-Super Club05h 22' 08"+  00:06:04 =33,992  km/h

137  Eric Van Lancker  Panasonic-Sportlife05h 22' 08"+  00:06:04 =33,992  km/h

138  Marino Alonso  Banesto05h 22' 08"+  00:06:04 =33,992  km/h

139  Jean-Paul van Poppel  Panasonic-Sportlife05h 22' 08"+  00:06:04 =33,992  km/h

140  Carlo Bomans  Weinmann-La Suisse-S.M.M. Uster05h 22' 08"+  00:06:04 =33,992  km/h

141  Guiseppe Calcaterra  Chateau d'Ax05h 22' 08"+  00:06:04 =33,992  km/h

142  Mauro-Antonio Santaromita  Chateau d'Ax05h 22' 08"+  00:06:04 =33,992  km/h

153  Gert Jakobs  PDM-Concorde05h 22' 08"+  00:06:04 =33,992  km/h

143  Patrick Tolhoek  Buckler05h 22' 56"+  00:06:52 =33,908  km/h

144  Charly Mottet  R.M.O.-Mavic-Liberia05h 22' 59"+  00:06:55 =33,903  km/h

145  Rodolfo Massi  Ariostea05h 22' 59"+  00:06:55 =33,903  km/h

146  Bob Roll  7 Eleven-Hoonved05h 23' 17"+  00:07:13 =33,871  km/h

147  Gerrit Solleveld  Buckler05h 26' 12"+  00:10:08 =33,568  km/h

148  Thomas Wegmüller  Weinmann-La Suisse-S.M.M. Uster05h 26' 12"+  00:10:08 =33,568  km/h

149  Antonio Espejo  Kelme-Ibexpress05h 26' 12"+  00:10:08 =33,568  km/h

150  Antonio Diaz  Kelme-Ibexpress05h 26' 12"+  00:10:08 =33,568  km/h

151  Thierry Marie  Castorama-Raleigh05h 27' 11"+  00:11:07 =33,467  km/h

152  Wilfried Peeters  Histor-Sigma05h 27' 11"+  00:11:07 =33,467  km/h

154  Patrick Verschueren  Lotto-Super Club05h 27' 11"+  00:11:07 =33,467  km/h

155  Hendrik Redant  Lotto-Super Club05h 27' 11"+  00:11:07 =33,467  km/h

156  Davis Phinney  7 Eleven-Hoonved05h 30' 35"+  00:14:31 =33,123  km/h


Withdrawls: 1
 RiderTeamReason
116   Hans-Rüdi Märki Helvetia-La SuisseDid not finish
Todays birthdays.

1888 • Achille Serroen
1889 • Francois Magatti
1891 • Guglielmo Ceccherelli
1895 • Jules Dubois
1903 • Julien Delbecque
1915 • Emile Masson jr.
1922 • Maurice Lauze
1923 • Franco Franchi
1932 • Kurt Schneider
1940 • Franco Bitossi
1948 • Juan Zurano
1949 • Richard Pianaro
1954 • Alain Vigneron
1969 • Andrea Ferrigato
1975 • Dario Pieri
1978 • Rubén Lobato
1983 • Riccardo Riccò
1994 • Oliviero Troia
1996 • Eddie Dunbar

 

Optimized for Chrome - Edge
and Opera browsers.